Time,TemperatureF,DewpointF,PressureIn,WindDirection,WindDirectionDegrees,WindSpeedMPH,WindSpeedGustMPH,Humidity,HourlyPrecipIn,Conditions,Clouds,dailyrainin,SoftwareType,DateUTC
2017-03-29 00:05:00,41.2,38.8,30.14,South,180,0.7,1.6,91,0.01,,,0.00,meteobridge,2017-03-29 07:05:00,
2017-03-29 00:11:00,41.2,38.8,30.13,SW,225,0.0,0.7,91,0.00,,,0.00,meteobridge,2017-03-29 07:11:00,
2017-03-29 00:17:00,41.2,38.8,30.14,SE,135,0.7,0.7,91,0.00,,,0.00,meteobridge,2017-03-29 07:17:00,
2017-03-29 00:23:00,41.2,38.8,30.14,SW,225,1.6,1.6,91,0.00,,,0.00,meteobridge,2017-03-29 07:23:00,
2017-03-29 00:29:00,41.4,39.0,30.14,South,180,0.7,0.7,91,0.00,,,0.00,meteobridge,2017-03-29 07:29:00,
2017-03-29 00:34:00,41.4,39.0,30.12,SW,225,0.0,0.7,91,0.00,,,0.00,meteobridge,2017-03-29 07:34:00,
2017-03-29 00:40:00,41.4,39.0,30.12,South,180,0.0,0.7,91,0.00,,,0.00,meteobridge,2017-03-29 07:40:00,
2017-03-29 00:46:00,41.4,39.0,30.12,South,180,0.7,0.7,91,0.00,,,0.00,meteobridge,2017-03-29 07:46:00,
2017-03-29 00:52:00,41.4,39.0,30.12,South,180,0.0,0.0,91,0.00,,,0.00,meteobridge,2017-03-29 07:52:00,
2017-03-29 00:58:00,41.4,39.0,30.11,South,180,0.0,0.0,91,0.00,,,0.00,meteobridge,2017-03-29 07:58:00,
2017-03-29 01:04:00,41.4,39.0,30.11,SW,225,0.0,0.0,91,0.00,,,0.00,meteobridge,2017-03-29 08:04:00,
2017-03-29 01:10:00,41.4,39.0,30.10,South,180,0.0,0.0,91,0.00,,,0.00,meteobridge,2017-03-29 08:10:00,
2017-03-29 01:16:00,41.4,39.0,30.10,South,180,0.7,1.6,91,0.00,,,0.00,meteobridge,2017-03-29 08:16:00,
2017-03-29 01:21:00,41.5,39.2,30.09,SW,225,0.7,0.7,91,0.01,,,0.01,meteobridge,2017-03-29 08:21:00,
2017-03-29 01:27:00,41.5,39.2,30.10,SW,225,0.0,2.2,91,0.01,,,0.01,meteobridge,2017-03-29 08:27:00,
2017-03-29 01:33:00,41.5,39.2,30.10,SW,225,0.0,0.0,91,0.01,,,0.01,meteobridge,2017-03-29 08:33:00,
2017-03-29 01:39:00,41.5,39.2,30.09,SW,225,0.7,0.7,91,0.01,,,0.01,meteobridge,2017-03-29 08:39:00,
2017-03-29 01:45:00,41.5,39.2,30.10,South,180,0.0,0.0,91,0.01,,,0.01,meteobridge,2017-03-29 08:45:00,
2017-03-29 01:51:00,41.5,39.2,30.09,South,180,1.6,1.6,91,0.01,,,0.01,meteobridge,2017-03-29 08:51:00,
2017-03-29 01:57:00,41.5,39.2,30.09,SW,225,0.7,0.7,91,0.01,,,0.01,meteobridge,2017-03-29 08:57:00,
2017-03-29 02:03:00,41.5,39.2,30.09,NW,315,1.6,1.6,91,0.01,,,0.01,meteobridge,2017-03-29 09:03:00,
2017-03-29 02:08:00,41.5,39.2,30.08,SW,225,0.0,0.0,91,0.02,,,0.02,meteobridge,2017-03-29 09:08:00,
2017-03-29 02:14:00,41.5,39.2,30.08,South,180,0.0,0.0,91,0.02,,,0.02,meteobridge,2017-03-29 09:14:00,
2017-03-29 02:20:00,41.5,39.2,30.07,South,180,0.0,0.7,91,0.02,,,0.02,meteobridge,2017-03-29 09:20:00,
2017-03-29 02:26:00,41.5,39.2,30.06,South,180,0.0,0.0,91,0.02,,,0.04,meteobridge,2017-03-29 09:26:00,
2017-03-29 02:32:00,41.5,39.2,30.06,SW,225,0.0,0.0,91,0.02,,,0.04,meteobridge,2017-03-29 09:32:00,
2017-03-29 02:38:00,41.5,39.2,30.05,SW,225,0.0,0.0,91,0.02,,,0.04,meteobridge,2017-03-29 09:38:00,
2017-03-29 02:44:00,41.5,39.2,30.05,SW,225,0.7,0.7,91,0.04,,,0.05,meteobridge,2017-03-29 09:44:00,
2017-03-29 02:49:00,41.4,39.0,30.04,South,180,0.0,0.7,91,0.04,,,0.05,meteobridge,2017-03-29 09:49:00,
2017-03-29 02:55:00,41.4,39.0,30.04,South,180,0.0,0.0,91,0.04,,,0.05,meteobridge,2017-03-29 09:55:00,
2017-03-29 03:01:00,41.4,39.0,30.03,South,180,0.0,0.0,91,0.04,,,0.05,meteobridge,2017-03-29 10:01:00,
2017-03-29 03:07:00,41.4,39.0,30.02,South,180,0.0,0.0,91,0.04,,,0.05,meteobridge,2017-03-29 10:07:00,
2017-03-29 03:13:00,41.4,39.0,30.02,South,180,0.0,0.0,91,0.02,,,0.05,meteobridge,2017-03-29 10:13:00,
2017-03-29 03:19:00,41.4,39.0,30.01,SW,225,1.6,1.6,91,0.04,,,0.06,meteobridge,2017-03-29 10:19:00,
2017-03-29 03:25:00,41.4,39.0,30.01,SSW,203,0.0,0.0,91,0.02,,,0.06,meteobridge,2017-03-29 10:25:00,
2017-03-29 03:31:00,41.4,39.0,30.01,SW,225,0.0,0.7,91,0.02,,,0.06,meteobridge,2017-03-29 10:31:00,
2017-03-29 03:36:00,41.4,39.0,30.00,SW,225,0.7,0.7,91,0.04,,,0.07,meteobridge,2017-03-29 10:36:00,
2017-03-29 03:42:00,41.4,39.0,30.01,SW,225,0.0,0.0,91,0.04,,,0.07,meteobridge,2017-03-29 10:42:00,
2017-03-29 03:48:00,41.2,38.8,30.00,South,180,1.6,1.6,91,0.04,,,0.08,meteobridge,2017-03-29 10:48:00,
2017-03-29 03:54:00,41.2,38.8,30.00,SW,225,0.7,0.7,91,0.05,,,0.09,meteobridge,2017-03-29 10:54:00,
2017-03-29 04:00:00,41.2,38.8,30.00,South,180,0.0,0.0,91,0.07,,,0.12,meteobridge,2017-03-29 11:00:00,
2017-03-29 04:06:00,41.2,38.8,29.99,SSW,203,0.7,0.7,91,0.08,,,0.13,meteobridge,2017-03-29 11:06:00,
2017-03-29 04:12:00,41.2,38.8,29.98,South,180,0.0,0.0,91,0.09,,,0.14,meteobridge,2017-03-29 11:12:00,
2017-03-29 04:18:00,41.2,38.8,29.98,SW,225,0.7,1.6,91,0.11,,,0.15,meteobridge,2017-03-29 11:18:00,
2017-03-29 04:23:00,41.2,38.8,29.97,NW,315,0.0,0.0,91,0.11,,,0.17,meteobridge,2017-03-29 11:23:00,
2017-03-29 04:29:00,41.0,38.7,29.98,SW,225,0.0,0.0,91,0.12,,,0.18,meteobridge,2017-03-29 11:29:00,
2017-03-29 04:35:00,41.0,38.7,29.98,SW,225,0.0,0.0,91,0.11,,,0.18,meteobridge,2017-03-29 11:35:00,
2017-03-29 04:41:00,41.0,38.7,29.99,West,270,0.0,0.0,91,0.12,,,0.19,meteobridge,2017-03-29 11:41:00,
2017-03-29 04:47:00,41.0,38.7,29.98,South,180,0.0,0.0,91,0.13,,,0.21,meteobridge,2017-03-29 11:47:00,
2017-03-29 04:53:00,41.0,38.7,29.98,SW,225,0.0,0.7,91,0.13,,,0.22,meteobridge,2017-03-29 11:53:00,
2017-03-29 04:59:00,41.0,38.7,29.98,SSW,203,0.0,0.0,91,0.12,,,0.22,meteobridge,2017-03-29 11:59:00,
2017-03-29 05:05:00,41.0,38.7,29.97,SW,225,0.0,0.0,91,0.11,,,0.22,meteobridge,2017-03-29 12:05:00,
2017-03-29 05:10:00,40.8,38.7,29.98,SW,225,0.0,0.7,92,0.11,,,0.25,meteobridge,2017-03-29 12:10:00,
2017-03-29 05:16:00,40.8,38.7,29.96,SE,135,0.0,0.0,92,0.09,,,0.25,meteobridge,2017-03-29 12:16:00,
2017-03-29 05:22:00,40.8,38.7,29.96,SW,225,0.0,0.0,92,0.09,,,0.26,meteobridge,2017-03-29 12:22:00,
2017-03-29 05:28:00,40.8,38.7,29.95,West,270,0.0,0.7,92,0.09,,,0.26,meteobridge,2017-03-29 12:28:00,
2017-03-29 05:34:00,40.8,38.7,29.95,SW,225,3.1,3.1,92,0.08,,,0.26,meteobridge,2017-03-29 12:34:00,
2017-03-29 05:40:00,40.8,38.7,29.94,South,180,0.7,0.7,92,0.07,,,0.26,meteobridge,2017-03-29 12:40:00,
2017-03-29 05:46:00,40.8,38.7,29.93,South,180,1.6,1.6,92,0.07,,,0.27,meteobridge,2017-03-29 12:46:00,
2017-03-29 05:52:00,40.6,38.5,29.93,West,270,2.2,3.1,92,0.06,,,0.27,meteobridge,2017-03-29 12:52:00,
2017-03-29 05:57:00,40.6,38.5,29.92,NW,315,2.2,2.2,92,0.05,,,0.27,meteobridge,2017-03-29 12:57:00,
2017-03-29 06:03:00,40.6,38.5,29.92,West,270,0.0,1.6,92,0.05,,,0.27,meteobridge,2017-03-29 13:03:00,
2017-03-29 06:09:00,40.6,38.5,29.92,WNW,293,1.6,1.6,92,0.04,,,0.27,meteobridge,2017-03-29 13:09:00,
2017-03-29 06:15:00,40.6,38.5,29.92,West,270,1.6,2.2,92,0.02,,,0.27,meteobridge,2017-03-29 13:15:00,
2017-03-29 06:21:00,40.6,38.5,29.91,SW,225,3.1,3.1,92,0.02,,,0.27,meteobridge,2017-03-29 13:21:00,
2017-03-29 06:22:00,40.6,38.5,29.91,SW,225,2.2,3.1,92,0.01,,,0.27,meteobridge,2017-03-29 13:22:00,
2017-03-29 06:28:00,40.6,38.5,29.91,East,90,0.7,1.6,92,0.01,,,0.27,meteobridge,2017-03-29 13:28:00,
2017-03-29 06:34:00,40.6,38.5,29.90,NW,315,1.6,3.1,92,0.01,,,0.27,meteobridge,2017-03-29 13:34:00,
2017-03-29 06:40:00,40.8,38.7,29.91,SW,225,0.0,1.6,92,0.02,,,0.28,meteobridge,2017-03-29 13:40:00,
2017-03-29 06:46:00,41.0,38.7,29.92,South,180,0.7,1.6,91,0.01,,,0.28,meteobridge,2017-03-29 13:46:00,
2017-03-29 06:51:00,41.0,38.7,29.92,SW,225,0.7,0.7,91,0.02,,,0.30,meteobridge,2017-03-29 13:51:00,
2017-03-29 06:57:00,41.0,38.7,29.92,SE,135,0.0,1.6,91,0.02,,,0.30,meteobridge,2017-03-29 13:57:00,
2017-03-29 07:03:00,41.2,38.8,29.92,SW,225,1.6,1.6,91,0.02,,,0.30,meteobridge,2017-03-29 14:03:00,
2017-03-29 07:09:00,41.2,38.8,29.93,North,0,0.0,0.0,91,0.02,,,0.30,meteobridge,2017-03-29 14:09:00,
2017-03-29 07:15:00,41.4,39.0,29.93,NW,315,0.7,0.7,91,0.04,,,0.31,meteobridge,2017-03-29 14:15:00,
2017-03-29 07:21:00,41.4,39.0,29.93,SE,135,0.0,0.0,91,0.04,,,0.31,meteobridge,2017-03-29 14:21:00,
2017-03-29 07:27:00,41.4,39.0,29.92,West,270,0.0,0.0,91,0.04,,,0.31,meteobridge,2017-03-29 14:27:00,
2017-03-29 07:33:00,41.5,39.2,29.91,SW,225,0.0,0.0,91,0.04,,,0.31,meteobridge,2017-03-29 14:33:00,
2017-03-29 07:38:00,41.5,39.2,29.91,West,270,0.0,0.0,91,0.05,,,0.32,meteobridge,2017-03-29 14:38:00,
2017-03-29 07:44:00,41.5,39.2,29.92,West,270,0.0,0.0,91,0.04,,,0.32,meteobridge,2017-03-29 14:44:00,
2017-03-29 07:50:00,41.5,39.2,29.93,NE,45,0.0,0.7,91,0.04,,,0.32,meteobridge,2017-03-29 14:50:00,
2017-03-29 07:56:00,41.7,39.2,29.92,NNW,338,0.0,0.0,91,0.02,,,0.32,meteobridge,2017-03-29 14:56:00,
2017-03-29 08:02:00,41.7,39.2,29.92,NE,45,0.0,0.7,91,0.02,,,0.32,meteobridge,2017-03-29 15:02:00,
2017-03-29 08:08:00,41.9,39.4,29.92,SW,225,0.0,0.7,91,0.02,,,0.32,meteobridge,2017-03-29 15:08:00,
2017-03-29 08:14:00,41.9,39.4,29.93,SE,135,0.0,0.0,91,0.02,,,0.32,meteobridge,2017-03-29 15:14:00,
2017-03-29 08:20:00,41.9,39.4,29.92,SE,135,1.6,1.6,91,0.01,,,0.32,meteobridge,2017-03-29 15:20:00,
2017-03-29 08:25:00,42.1,39.6,29.92,NNW,338,0.0,0.0,91,0.01,,,0.32,meteobridge,2017-03-29 15:25:00,
2017-03-29 08:31:00,42.3,40.1,29.91,NW,315,0.0,0.0,92,0.01,,,0.32,meteobridge,2017-03-29 15:31:00,
2017-03-29 08:37:00,42.4,40.3,29.92,WNW,293,0.0,0.0,92,0.01,,,0.32,meteobridge,2017-03-29 15:37:00,
2017-03-29 08:43:00,42.4,40.3,29.92,SW,225,0.0,0.0,92,0.00,,,0.32,meteobridge,2017-03-29 15:43:00,
2017-03-29 08:49:00,42.6,40.5,29.92,NW,315,0.0,0.7,92,0.00,,,0.32,meteobridge,2017-03-29 15:49:00,
2017-03-29 08:55:00,42.6,40.5,29.91,NW,315,0.0,0.0,92,0.00,,,0.32,meteobridge,2017-03-29 15:55:00,
2017-03-29 09:01:00,42.8,40.3,29.91,North,0,0.0,1.6,91,0.00,,,0.32,meteobridge,2017-03-29 16:01:00,
2017-03-29 09:07:00,42.8,40.3,29.91,North,0,0.0,0.0,91,0.00,,,0.32,meteobridge,2017-03-29 16:07:00,
2017-03-29 09:12:00,43.3,40.8,29.91,West,270,0.0,0.0,91,0.00,,,0.32,meteobridge,2017-03-29 16:12:00,
2017-03-29 09:18:00,43.5,41.0,29.91,SW,225,0.0,1.6,91,0.00,,,0.32,meteobridge,2017-03-29 16:18:00,
2017-03-29 09:24:00,43.5,41.0,29.92,SW,225,0.7,0.7,91,0.00,,,0.32,meteobridge,2017-03-29 16:24:00,
2017-03-29 09:30:00,43.7,41.2,29.91,NW,315,2.2,2.2,91,0.00,,,0.32,meteobridge,2017-03-29 16:30:00,
2017-03-29 09:36:00,43.9,41.4,29.90,North,0,0.7,0.7,91,0.00,,,0.32,meteobridge,2017-03-29 16:36:00,
2017-03-29 09:42:00,43.9,41.4,29.91,South,180,0.7,0.7,91,0.00,,,0.32,meteobridge,2017-03-29 16:42:00,
2017-03-29 09:48:00,43.9,41.4,29.90,West,270,0.0,0.0,91,0.00,,,0.32,meteobridge,2017-03-29 16:48:00,
2017-03-29 09:54:00,44.1,41.5,29.92,NW,315,0.0,0.7,91,0.00,,,0.32,meteobridge,2017-03-29 16:54:00,
2017-03-29 09:59:00,44.1,41.5,29.91,SW,225,0.7,0.7,91,0.01,,,0.33,meteobridge,2017-03-29 16:59:00,
2017-03-29 10:05:00,44.1,41.5,29.91,SE,135,0.0,0.0,91,0.01,,,0.33,meteobridge,2017-03-29 17:05:00,
2017-03-29 10:11:00,44.2,41.7,29.91,West,270,0.0,0.0,91,0.01,,,0.33,meteobridge,2017-03-29 17:11:00,
2017-03-29 10:17:00,44.4,41.9,29.91,West,270,0.0,0.0,91,0.01,,,0.33,meteobridge,2017-03-29 17:17:00,
2017-03-29 10:23:00,44.6,41.9,29.90,SE,135,0.0,1.6,90,0.01,,,0.33,meteobridge,2017-03-29 17:23:00,
2017-03-29 10:29:00,44.8,42.1,29.90,NW,315,0.0,0.0,90,0.01,,,0.33,meteobridge,2017-03-29 17:29:00,
2017-03-29 10:35:00,44.8,42.1,29.90,North,0,0.0,0.7,90,0.01,,,0.33,meteobridge,2017-03-29 17:35:00,
2017-03-29 10:41:00,45.0,42.3,29.90,South,180,0.0,0.7,90,0.01,,,0.33,meteobridge,2017-03-29 17:41:00,
2017-03-29 10:46:00,45.1,42.4,29.91,NW,315,0.7,0.7,90,0.01,,,0.33,meteobridge,2017-03-29 17:46:00,
2017-03-29 10:52:00,45.3,42.6,29.91,NW,315,0.7,0.7,90,0.01,,,0.33,meteobridge,2017-03-29 17:52:00,
2017-03-29 10:58:00,45.5,42.8,29.91,West,270,0.0,0.7,90,0.00,,,0.33,meteobridge,2017-03-29 17:58:00,
2017-03-29 11:04:00,45.5,42.8,29.91,West,270,0.7,0.7,90,0.00,,,0.33,meteobridge,2017-03-29 18:04:00,
2017-03-29 11:10:00,45.5,42.8,29.91,West,270,0.0,0.7,90,0.00,,,0.33,meteobridge,2017-03-29 18:10:00,
2017-03-29 11:16:00,45.7,43.0,29.92,West,270,0.0,0.0,90,0.01,,,0.34,meteobridge,2017-03-29 18:16:00,
2017-03-29 11:22:00,45.7,43.0,29.92,West,270,0.0,0.0,90,0.01,,,0.34,meteobridge,2017-03-29 18:22:00,
2017-03-29 11:28:00,45.9,43.2,29.91,North,0,0.0,0.0,90,0.01,,,0.34,meteobridge,2017-03-29 18:28:00,
2017-03-29 11:33:00,46.0,43.3,29.92,North,0,0.0,0.0,90,0.01,,,0.34,meteobridge,2017-03-29 18:33:00,
2017-03-29 11:39:00,46.2,43.5,29.92,NW,315,0.0,0.0,90,0.01,,,0.34,meteobridge,2017-03-29 18:39:00,
2017-03-29 11:45:00,46.2,43.5,29.92,South,180,0.0,0.0,90,0.01,,,0.34,meteobridge,2017-03-29 18:45:00,
2017-03-29 11:51:00,46.6,44.1,29.92,West,270,0.0,0.0,91,0.02,,,0.35,meteobridge,2017-03-29 18:51:00,
2017-03-29 11:57:00,46.8,44.2,29.92,SW,225,0.0,0.0,91,0.02,,,0.35,meteobridge,2017-03-29 18:57:00,
2017-03-29 12:03:00,46.9,44.4,29.91,East,90,0.0,0.0,91,0.02,,,0.35,meteobridge,2017-03-29 19:03:00,
2017-03-29 12:09:00,46.9,44.4,29.92,SE,135,0.7,0.7,91,0.02,,,0.35,meteobridge,2017-03-29 19:09:00,
2017-03-29 12:15:00,47.3,44.8,29.93,East,90,0.0,0.7,91,0.01,,,0.35,meteobridge,2017-03-29 19:15:00,
2017-03-29 12:16:00,47.3,44.8,29.92,East,90,0.0,0.7,91,0.01,,,0.35,meteobridge,2017-03-29 19:16:00,
2017-03-29 12:22:00,47.3,44.8,29.92,SW,225,0.0,0.0,91,0.01,,,0.35,meteobridge,2017-03-29 19:22:00,
2017-03-29 12:27:00,47.5,45.0,29.93,North,0,0.0,0.0,91,0.02,,,0.37,meteobridge,2017-03-29 19:27:00,
2017-03-29 12:33:00,47.7,45.1,29.92,NW,315,0.0,0.0,91,0.02,,,0.37,meteobridge,2017-03-29 19:33:00,
2017-03-29 12:39:00,47.8,45.3,29.92,South,180,0.7,0.7,91,0.02,,,0.37,meteobridge,2017-03-29 19:39:00,
2017-03-29 12:45:00,47.8,45.3,29.92,North,0,0.7,0.7,91,0.02,,,0.37,meteobridge,2017-03-29 19:45:00,
2017-03-29 12:51:00,47.8,45.3,29.92,North,0,0.0,0.0,91,0.02,,,0.38,meteobridge,2017-03-29 19:51:00,
2017-03-29 12:57:00,48.7,46.2,29.92,South,180,0.0,0.0,91,0.02,,,0.38,meteobridge,2017-03-29 19:57:00,
2017-03-29 13:03:00,48.9,46.4,29.92,NW,315,0.0,0.0,91,0.02,,,0.38,meteobridge,2017-03-29 20:03:00,
2017-03-29 13:09:00,50.0,47.1,29.92,NE,45,0.0,0.0,90,0.02,,,0.38,meteobridge,2017-03-29 20:09:00,
2017-03-29 13:14:00,50.4,47.5,29.93,South,180,0.0,0.0,90,0.02,,,0.38,meteobridge,2017-03-29 20:14:00,
2017-03-29 13:20:00,50.4,47.5,29.92,SE,135,0.0,0.7,90,0.02,,,0.38,meteobridge,2017-03-29 20:20:00,
2017-03-29 13:26:00,50.5,47.5,29.92,SE,135,0.0,0.7,89,0.01,,,0.38,meteobridge,2017-03-29 20:26:00,
2017-03-29 13:32:00,50.7,47.7,29.91,SE,135,0.0,0.0,89,0.01,,,0.38,meteobridge,2017-03-29 20:32:00,
2017-03-29 13:38:00,51.1,48.0,29.92,SSW,203,0.0,0.0,89,0.01,,,0.38,meteobridge,2017-03-29 20:38:00,
2017-03-29 13:44:00,51.1,48.0,29.92,NW,315,0.0,0.0,89,0.01,,,0.38,meteobridge,2017-03-29 20:44:00,
2017-03-29 13:50:00,51.4,48.4,29.92,SE,135,0.0,0.0,89,0.02,,,0.39,meteobridge,2017-03-29 20:50:00,
2017-03-29 13:56:00,51.6,48.6,29.91,East,90,0.0,0.0,89,0.01,,,0.39,meteobridge,2017-03-29 20:56:00,
2017-03-29 14:01:00,52.0,48.2,29.91,South,180,0.0,0.0,87,0.01,,,0.39,meteobridge,2017-03-29 21:01:00,
2017-03-29 14:07:00,52.2,48.4,29.91,North,0,0.0,0.0,87,0.01,,,0.39,meteobridge,2017-03-29 21:07:00,
2017-03-29 14:13:00,52.2,48.4,29.91,SE,135,0.0,0.7,87,0.01,,,0.39,meteobridge,2017-03-29 21:13:00,
2017-03-29 14:19:00,52.3,48.2,29.90,SE,135,0.7,0.7,86,0.01,,,0.39,meteobridge,2017-03-29 21:19:00,
2017-03-29 14:25:00,51.8,47.7,29.91,East,90,0.0,0.7,86,0.01,,,0.39,meteobridge,2017-03-29 21:25:00,
2017-03-29 14:31:00,51.4,47.7,29.90,East,90,0.0,0.0,87,0.02,,,0.40,meteobridge,2017-03-29 21:31:00,
2017-03-29 14:37:00,51.4,47.5,29.91,NE,45,0.0,0.0,86,0.02,,,0.40,meteobridge,2017-03-29 21:37:00,
2017-03-29 14:43:00,51.3,47.3,29.90,NE,45,0.0,0.0,86,0.04,,,0.41,meteobridge,2017-03-29 21:43:00,
2017-03-29 14:48:00,50.9,46.9,29.91,SE,135,0.0,0.0,86,0.04,,,0.41,meteobridge,2017-03-29 21:48:00,
2017-03-29 14:54:00,51.1,47.1,29.91,East,90,0.0,0.0,86,0.04,,,0.43,meteobridge,2017-03-29 21:54:00,
2017-03-29 15:00:00,51.1,47.1,29.91,SE,135,0.0,0.7,86,0.04,,,0.43,meteobridge,2017-03-29 22:00:00,
2017-03-29 15:06:00,51.1,47.1,29.91,SE,135,0.0,0.0,86,0.04,,,0.43,meteobridge,2017-03-29 22:06:00,
2017-03-29 15:12:00,51.3,47.3,29.91,SE,135,0.0,0.7,86,0.05,,,0.44,meteobridge,2017-03-29 22:12:00,
2017-03-29 15:18:00,51.4,47.5,29.91,East,90,0.0,0.0,86,0.05,,,0.44,meteobridge,2017-03-29 22:18:00,
2017-03-29 15:24:00,51.4,47.7,29.91,East,90,0.0,0.0,87,0.06,,,0.45,meteobridge,2017-03-29 22:24:00,
2017-03-29 15:30:00,51.6,47.8,29.91,SE,135,0.0,0.7,87,0.05,,,0.45,meteobridge,2017-03-29 22:30:00,
2017-03-29 15:35:00,51.6,47.8,29.91,East,90,0.0,0.0,87,0.05,,,0.45,meteobridge,2017-03-29 22:35:00,
2017-03-29 15:41:00,51.4,47.7,29.91,East,90,0.0,0.0,87,0.05,,,0.46,meteobridge,2017-03-29 22:41:00,
2017-03-29 15:47:00,51.3,47.3,29.91,SE,135,0.0,0.0,86,0.06,,,0.47,meteobridge,2017-03-29 22:47:00,
2017-03-29 15:53:00,51.1,47.1,29.91,NE,45,0.0,1.6,86,0.05,,,0.47,meteobridge,2017-03-29 22:53:00,
2017-03-29 15:59:00,51.1,47.1,29.92,North,0,0.0,0.0,86,0.06,,,0.48,meteobridge,2017-03-29 22:59:00,
2017-03-29 16:05:00,51.3,47.3,29.90,SE,135,0.0,0.0,86,0.06,,,0.48,meteobridge,2017-03-29 23:05:00,
2017-03-29 16:11:00,50.7,46.8,29.92,SE,135,0.0,0.0,86,0.06,,,0.50,meteobridge,2017-03-29 23:11:00,
2017-03-29 16:17:00,50.7,46.8,29.91,SE,135,0.0,1.6,86,0.06,,,0.50,meteobridge,2017-03-29 23:17:00,
2017-03-29 16:22:00,50.7,46.8,29.92,North,0,0.0,0.7,86,0.05,,,0.50,meteobridge,2017-03-29 23:22:00,
2017-03-29 16:28:00,50.7,46.8,29.92,East,90,0.7,0.7,86,0.06,,,0.51,meteobridge,2017-03-29 23:28:00,
2017-03-29 16:34:00,51.4,47.7,29.92,East,90,0.0,0.7,87,0.06,,,0.51,meteobridge,2017-03-29 23:34:00,
2017-03-29 16:40:00,51.8,47.7,29.91,West,270,0.0,0.0,86,0.05,,,0.51,meteobridge,2017-03-29 23:40:00,
2017-03-29 16:46:00,51.6,47.5,29.92,East,90,0.0,0.0,86,0.04,,,0.51,meteobridge,2017-03-29 23:46:00,
2017-03-29 16:52:00,51.6,47.5,29.92,NE,45,0.0,0.0,86,0.04,,,0.51,meteobridge,2017-03-29 23:52:00,
2017-03-29 16:58:00,51.6,47.5,29.93,North,0,0.0,0.0,86,0.02,,,0.51,meteobridge,2017-03-29 23:58:00,
2017-03-29 17:04:00,51.6,47.5,29.93,NE,45,0.0,0.0,86,0.02,,,0.51,meteobridge,2017-03-30 00:04:00,
2017-03-29 17:09:00,51.1,46.8,29.93,West,270,0.0,0.7,85,0.01,,,0.51,meteobridge,2017-03-30 00:09:00,
2017-03-29 17:15:00,50.7,46.4,29.92,East,90,0.0,0.0,85,0.01,,,0.51,meteobridge,2017-03-30 00:15:00,
2017-03-29 17:21:00,50.7,46.4,29.92,East,90,0.0,0.0,85,0.01,,,0.51,meteobridge,2017-03-30 00:21:00,
2017-03-29 17:27:00,51.1,46.8,29.93,East,90,0.0,0.0,85,0.00,,,0.51,meteobridge,2017-03-30 00:27:00,
2017-03-29 17:33:00,50.7,46.4,29.93,East,90,0.0,0.0,85,0.00,,,0.51,meteobridge,2017-03-30 00:33:00,
2017-03-29 17:39:00,50.7,46.4,29.93,East,90,0.0,0.0,85,0.00,,,0.51,meteobridge,2017-03-30 00:39:00,
2017-03-29 17:45:00,50.5,46.2,29.93,NE,45,0.0,0.0,85,0.00,,,0.51,meteobridge,2017-03-30 00:45:00,
2017-03-29 17:51:00,50.0,45.7,29.93,NE,45,0.0,0.7,85,0.00,,,0.51,meteobridge,2017-03-30 00:51:00,
2017-03-29 17:56:00,49.3,45.0,29.94,SE,135,1.6,1.6,85,0.00,,,0.51,meteobridge,2017-03-30 00:56:00,
2017-03-29 18:02:00,48.7,44.4,29.93,ENE,68,0.0,0.0,85,0.00,,,0.51,meteobridge,2017-03-30 01:02:00,
2017-03-29 18:08:00,47.8,43.9,29.95,SE,135,0.0,0.0,86,0.00,,,0.51,meteobridge,2017-03-30 01:08:00,
2017-03-29 18:14:00,47.8,43.9,29.94,NE,45,0.0,0.0,86,0.01,,,0.52,meteobridge,2017-03-30 01:14:00,
2017-03-29 18:20:00,47.7,43.7,29.93,East,90,0.7,0.7,86,0.01,,,0.52,meteobridge,2017-03-30 01:20:00,
2017-03-29 18:26:00,47.3,43.3,29.94,North,0,0.0,0.0,86,0.01,,,0.52,meteobridge,2017-03-30 01:26:00,
2017-03-29 18:32:00,47.3,43.3,29.94,NE,45,0.0,0.0,86,0.01,,,0.52,meteobridge,2017-03-30 01:32:00,
2017-03-29 18:38:00,47.1,43.5,29.95,East,90,0.0,1.6,87,0.01,,,0.52,meteobridge,2017-03-30 01:38:00,
2017-03-29 18:43:00,47.1,43.5,29.94,East,90,0.0,0.0,87,0.01,,,0.52,meteobridge,2017-03-30 01:43:00,
2017-03-29 18:49:00,47.1,43.5,29.95,NE,45,0.7,0.7,87,0.01,,,0.52,meteobridge,2017-03-30 01:49:00,
2017-03-29 18:55:00,46.9,43.5,29.94,NE,45,0.0,0.7,88,0.01,,,0.52,meteobridge,2017-03-30 01:55:00,
2017-03-29 19:01:00,46.8,43.3,29.95,North,0,0.0,0.0,88,0.01,,,0.52,meteobridge,2017-03-30 02:01:00,
2017-03-29 19:07:00,46.8,43.3,29.95,North,0,0.0,0.0,88,0.01,,,0.52,meteobridge,2017-03-30 02:07:00,
2017-03-29 19:13:00,46.4,43.0,29.95,North,0,0.0,0.7,88,0.00,,,0.52,meteobridge,2017-03-30 02:13:00,
2017-03-29 19:19:00,46.2,42.8,29.95,NE,45,0.0,0.0,88,0.00,,,0.52,meteobridge,2017-03-30 02:19:00,
2017-03-29 19:25:00,46.0,42.6,29.95,NE,45,0.0,0.7,88,0.00,,,0.52,meteobridge,2017-03-30 02:25:00,
2017-03-29 19:30:00,45.7,42.3,29.94,NE,45,0.0,0.0,88,0.00,,,0.52,meteobridge,2017-03-30 02:30:00,
2017-03-29 19:36:00,45.3,41.9,29.95,NE,45,0.0,0.7,88,0.00,,,0.52,meteobridge,2017-03-30 02:36:00,
2017-03-29 19:42:00,45.3,42.3,29.95,NE,45,0.0,0.0,89,0.00,,,0.52,meteobridge,2017-03-30 02:42:00,
2017-03-29 19:48:00,45.0,41.9,29.95,North,0,0.0,0.0,89,0.00,,,0.52,meteobridge,2017-03-30 02:48:00,
2017-03-29 19:54:00,44.8,41.7,29.94,North,0,0.0,0.0,89,0.00,,,0.52,meteobridge,2017-03-30 02:54:00,
2017-03-29 20:00:00,44.6,41.5,29.95,NE,45,0.0,0.0,89,0.01,,,0.53,meteobridge,2017-03-30 03:00:00,
2017-03-29 20:06:00,44.6,41.5,29.95,North,0,0.0,0.0,89,0.02,,,0.54,meteobridge,2017-03-30 03:06:00,
2017-03-29 20:12:00,44.4,41.7,29.95,NW,315,0.0,0.0,90,0.02,,,0.54,meteobridge,2017-03-30 03:12:00,
2017-03-29 20:17:00,44.2,41.5,29.96,North,0,0.0,0.7,90,0.04,,,0.56,meteobridge,2017-03-30 03:17:00,
2017-03-29 20:23:00,44.1,41.4,29.95,North,0,0.7,0.7,90,0.05,,,0.57,meteobridge,2017-03-30 03:23:00,
2017-03-29 20:29:00,43.9,41.2,29.96,NE,45,0.0,0.0,90,0.05,,,0.57,meteobridge,2017-03-30 03:29:00,
2017-03-29 20:35:00,43.9,41.2,29.96,North,0,0.0,0.0,90,0.06,,,0.58,meteobridge,2017-03-30 03:35:00,